sensor_id;sensor_type;location;lat;lon;timestamp;P1;durP1;ratioP1;P2;durP2;ratioP2
68224;SDS011;57497;43.322;21.932;2024-01-15T00:00:36;240.3;;;91.6;;
68224;SDS011;57497;43.322;21.932;2024-01-15T00:05:36;144.2;;;66.5;;
68224;SDS011;57497;43.322;21.932;2024-01-15T00:10:36;139.7;;;60.2;;
68224;SDS011;57497;43.322;21.932;2024-01-15T00:15:33;175.4;;;66.1;;
68224;SDS011;57497;43.322;21.932;2024-01-15T00:20:35;197.9;;;85.2;;
68224;SDS011;57497;43.322;21.932;2024-01-15T00:25:33;213.4;;;89.1;;
68224;SDS011;57497;43.322;21.932;2024-01-15T00:30:33;267.8;;;112;;
68224;SDS011;57497;43.322;21.932;2024-01-15T00:35:33;259.3;;;109.8;;
68224;SDS011;57497;43.322;21.932;2024-01-15T00:40:33;260.2;;;105.8;;
68224;SDS011;57497;43.322;21.932;2024-01-15T00:45:33;220.5;;;100.3;;
68224;SDS011;57497;43.322;21.932;2024-01-15T00:50:34;258.5;;;112.7;;
68224;SDS011;57497;43.322;21.932;2024-01-15T00:55:33;250.6;;;112.4;;
68224;SDS011;57497;43.322;21.932;2024-01-15T01:00:35;226.8;;;100.7;;
68224;SDS011;57497;43.322;21.932;2024-01-15T01:05:33;286.6;;;104.3;;
68224;SDS011;57497;43.322;21.932;2024-01-15T01:10:33;236.1;;;105.5;;
68224;SDS011;57497;43.322;21.932;2024-01-15T01:15:33;242.2;;;93.6;;
68224;SDS011;57497;43.322;21.932;2024-01-15T01:20:35;190.8;;;73.9;;
68224;SDS011;57497;43.322;21.932;2024-01-15T01:25:34;162.9;;;62.4;;
68224;SDS011;57497;43.322;21.932;2024-01-15T01:30:33;147.3;;;59.2;;
68224;SDS011;57497;43.322;21.932;2024-01-15T01:35:33;108.7;;;48.4;;
68224;SDS011;57497;43.322;21.932;2024-01-15T01:40:34;122.5;;;44.6;;
68224;SDS011;57497;43.322;21.932;2024-01-15T01:45:34;85;;;40.9;;
68224;SDS011;57497;43.322;21.932;2024-01-15T01:50:33;56.3;;;26.2;;
68224;SDS011;57497;43.322;21.932;2024-01-15T01:55:33;62;;;28.2;;
68224;SDS011;57497;43.322;21.932;2024-01-15T02:00:36;70.8;;;33.7;;
68224;SDS011;57497;43.322;21.932;2024-01-15T02:05:34;76.7;;;36.4;;
68224;SDS011;57497;43.322;21.932;2024-01-15T02:10:33;58.1;;;29.5;;
68224;SDS011;57497;43.322;21.932;2024-01-15T02:15:34;49.5;;;25.6;;
68224;SDS011;57497;43.322;21.932;2024-01-15T02:20:33;50.7;;;24.6;;
68224;SDS011;57497;43.322;21.932;2024-01-15T02:25:34;35.6;;;18.5;;
68224;SDS011;57497;43.322;21.932;2024-01-15T02:30:34;43.7;;;24;;
68224;SDS011;57497;43.322;21.932;2024-01-15T02:35:34;45.6;;;21.2;;
68224;SDS011;57497;43.322;21.932;2024-01-15T02:40:34;35.6;;;21.6;;
68224;SDS011;57497;43.322;21.932;2024-01-15T02:45:34;39.5;;;23.9;;
68224;SDS011;57497;43.322;21.932;2024-01-15T02:50:33;54.1;;;21.6;;
68224;SDS011;57497;43.322;21.932;2024-01-15T02:55:33;41.9;;;22;;
68224;SDS011;57497;43.322;21.932;2024-01-15T03:00:35;44.7;;;21.6;;
68224;SDS011;57497;43.322;21.932;2024-01-15T03:05:33;46.9;;;25.4;;
68224;SDS011;57497;43.322;21.932;2024-01-15T03:10:33;35.8;;;20.6;;
68224;SDS011;57497;43.322;21.932;2024-01-15T03:15:34;28.3;;;16;;
68224;SDS011;57497;43.322;21.932;2024-01-15T03:20:33;38.7;;;19.6;;
68224;SDS011;57497;43.322;21.932;2024-01-15T03:25:33;35.1;;;17.8;;
68224;SDS011;57497;43.322;21.932;2024-01-15T03:30:33;41.2;;;21;;
68224;SDS011;57497;43.322;21.932;2024-01-15T03:35:33;54.7;;;23;;
68224;SDS011;57497;43.322;21.932;2024-01-15T03:40:33;48.4;;;26.8;;
68224;SDS011;57497;43.322;21.932;2024-01-15T03:45:33;35.3;;;21.7;;
68224;SDS011;57497;43.322;21.932;2024-01-15T03:50:33;56.2;;;21.2;;
68224;SDS011;57497;43.322;21.932;2024-01-15T03:55:33;47.9;;;18.6;;
68224;SDS011;57497;43.322;21.932;2024-01-15T04:00:35;41.1;;;21.2;;
68224;SDS011;57497;43.322;21.932;2024-01-15T04:05:33;34;;;19.7;;
68224;SDS011;57497;43.322;21.932;2024-01-15T04:10:34;35.4;;;18.1;;
68224;SDS011;57497;43.322;21.932;2024-01-15T04:15:33;31.1;;;18.3;;
68224;SDS011;57497;43.322;21.932;2024-01-15T04:20:33;36.1;;;19.2;;
68224;SDS011;57497;43.322;21.932;2024-01-15T04:25:33;45.8;;;22.3;;
68224;SDS011;57497;43.322;21.932;2024-01-15T04:30:34;54.3;;;25.3;;
68224;SDS011;57497;43.322;21.932;2024-01-15T04:35:34;45;;;19.9;;
68224;SDS011;57497;43.322;21.932;2024-01-15T04:40:33;44.1;;;19.4;;
68224;SDS011;57497;43.322;21.932;2024-01-15T04:45:34;31.4;;;17;;
68224;SDS011;57497;43.322;21.932;2024-01-15T04:50:33;25.4;;;16.2;;
68224;SDS011;57497;43.322;21.932;2024-01-15T04:55:34;33.2;;;15;;
68224;SDS011;57497;43.322;21.932;2024-01-15T05:00:35;31;;;17.3;;
68224;SDS011;57497;43.322;21.932;2024-01-15T05:05:33;27.8;;;14.9;;
68224;SDS011;57497;43.322;21.932;2024-01-15T05:10:33;44.3;;;24.8;;
68224;SDS011;57497;43.322;21.932;2024-01-15T05:15:34;53.8;;;23.1;;
68224;SDS011;57497;43.322;21.932;2024-01-15T05:20:33;55.5;;;30.1;;
68224;SDS011;57497;43.322;21.932;2024-01-15T05:25:34;48.1;;;21.9;;
68224;SDS011;57497;43.322;21.932;2024-01-15T05:30:33;44;;;23.6;;
68224;SDS011;57497;43.322;21.932;2024-01-15T05:35:33;40.3;;;20.3;;
68224;SDS011;57497;43.322;21.932;2024-01-15T05:40:34;35.6;;;23;;
68224;SDS011;57497;43.322;21.932;2024-01-15T05:45:34;43.6;;;19.1;;
68224;SDS011;57497;43.322;21.932;2024-01-15T05:50:33;48.7;;;19.3;;
68224;SDS011;57497;43.322;21.932;2024-01-15T05:55:34;48.7;;;24.2;;
68224;SDS011;57497;43.322;21.932;2024-01-15T06:00:36;63.7;;;32.2;;
68224;SDS011;57497;43.322;21.932;2024-01-15T06:05:34;93.2;;;43.4;;
68224;SDS011;57497;43.322;21.932;2024-01-15T06:10:33;81.5;;;38.5;;
68224;SDS011;57497;43.322;21.932;2024-01-15T06:15:35;61.5;;;31.9;;
68224;SDS011;57497;43.322;21.932;2024-01-15T06:20:33;85.1;;;38.7;;
68224;SDS011;57497;43.322;21.932;2024-01-15T06:25:34;105.9;;;46.8;;
68224;SDS011;57497;43.322;21.932;2024-01-15T06:30:34;132;;;51;;
68224;SDS011;57497;43.322;21.932;2024-01-15T06:35:34;160;;;62.6;;
68224;SDS011;57497;43.322;21.932;2024-01-15T06:40:33;143.4;;;60.2;;
68224;SDS011;57497;43.322;21.932;2024-01-15T06:45:34;140.7;;;54.9;;
68224;SDS011;57497;43.322;21.932;2024-01-15T06:50:34;106.8;;;48.5;;
68224;SDS011;57497;43.322;21.932;2024-01-15T06:55:34;80.7;;;41.9;;
68224;SDS011;57497;43.322;21.932;2024-01-15T07:00:35;105.8;;;39.6;;
68224;SDS011;57497;43.322;21.932;2024-01-15T07:05:35;90.5;;;40.1;;
68224;SDS011;57497;43.322;21.932;2024-01-15T07:10:36;82;;;39.6;;
68224;SDS011;57497;43.322;21.932;2024-01-15T07:15:33;208.4;;;68.4;;
68224;SDS011;57497;43.322;21.932;2024-01-15T07:20:33;160.5;;;75.1;;
68224;SDS011;57497;43.322;21.932;2024-01-15T07:25:33;140.3;;;67.6;;
68224;SDS011;57497;43.322;21.932;2024-01-15T07:30:33;164.6;;;73.8;;
68224;SDS011;57497;43.322;21.932;2024-01-15T07:35:33;162.9;;;69.8;;
68224;SDS011;57497;43.322;21.932;2024-01-15T07:40:34;190;;;85.7;;
68224;SDS011;57497;43.322;21.932;2024-01-15T07:45:33;194.6;;;85.8;;
68224;SDS011;57497;43.322;21.932;2024-01-15T07:50:33;131.9;;;55.2;;
68224;SDS011;57497;43.322;21.932;2024-01-15T07:55:34;56;;;35;;
68224;SDS011;57497;43.322;21.932;2024-01-15T08:00:35;107;;;39.8;;
68224;SDS011;57497;43.322;21.932;2024-01-15T08:05:33;74.8;;;35.3;;
68224;SDS011;57497;43.322;21.932;2024-01-15T08:10:33;130.8;;;51.3;;
68224;SDS011;57497;43.322;21.932;2024-01-15T08:15:34;140.1;;;65.6;;
68224;SDS011;57497;43.322;21.932;2024-01-15T08:20:33;163.8;;;77.5;;
68224;SDS011;57497;43.322;21.932;2024-01-15T08:25:34;102.6;;;56.8;;
68224;SDS011;57497;43.322;21.932;2024-01-15T08:30:33;117.9;;;50;;
68224;SDS011;57497;43.322;21.932;2024-01-15T08:35:34;121.5;;;57.6;;
68224;SDS011;57497;43.322;21.932;2024-01-15T08:40:33;183.3;;;82.9;;
68224;SDS011;57497;43.322;21.932;2024-01-15T08:45:34;213.2;;;98;;
68224;SDS011;57497;43.322;21.932;2024-01-15T08:50:33;192.8;;;99.6;;
68224;SDS011;57497;43.322;21.932;2024-01-15T08:55:34;197.6;;;88;;
68224;SDS011;57497;43.322;21.932;2024-01-15T09:00:35;145.1;;;68.1;;
68224;SDS011;57497;43.322;21.932;2024-01-15T09:05:36;155;;;66.3;;
68224;SDS011;57497;43.322;21.932;2024-01-15T09:10:36;85.4;;;42.4;;
68224;SDS011;57497;43.322;21.932;2024-01-15T09:15:36;67.6;;;35.9;;
68224;SDS011;57497;43.322;21.932;2024-01-15T09:20:35;73;;;41.4;;
68224;SDS011;57497;43.322;21.932;2024-01-15T09:25:33;75.5;;;42.3;;
68224;SDS011;57497;43.322;21.932;2024-01-15T09:30:34;87.5;;;45.1;;
68224;SDS011;57497;43.322;21.932;2024-01-15T09:35:33;70.5;;;39.2;;
68224;SDS011;57497;43.322;21.932;2024-01-15T09:40:33;64.6;;;35.5;;
68224;SDS011;57497;43.322;21.932;2024-01-15T09:45:34;49.1;;;27.4;;
68224;SDS011;57497;43.322;21.932;2024-01-15T09:50:33;33.9;;;20.3;;
68224;SDS011;57497;43.322;21.932;2024-01-15T09:55:33;55.8;;;25.8;;
68224;SDS011;57497;43.322;21.932;2024-01-15T10:00:36;30.9;;;18.4;;
68224;SDS011;57497;43.322;21.932;2024-01-15T10:05:33;37.8;;;20.5;;
68224;SDS011;57497;43.322;21.932;2024-01-15T10:10:34;36.8;;;21.6;;
68224;SDS011;57497;43.322;21.932;2024-01-15T10:15:33;38;;;23.5;;
68224;SDS011;57497;43.322;21.932;2024-01-15T10:20:33;36;;;22.7;;
68224;SDS011;57497;43.322;21.932;2024-01-15T10:25:33;49.7;;;24.4;;
68224;SDS011;57497;43.322;21.932;2024-01-15T10:30:34;41.3;;;24;;
68224;SDS011;57497;43.322;21.932;2024-01-15T10:35:33;45.6;;;25.9;;
68224;SDS011;57497;43.322;21.932;2024-01-15T10:40:33;72.1;;;32.4;;
68224;SDS011;57497;43.322;21.932;2024-01-15T10:45:33;65.4;;;38.4;;
68224;SDS011;57497;43.322;21.932;2024-01-15T10:50:33;71.8;;;40.6;;
68224;SDS011;57497;43.322;21.932;2024-01-15T10:55:33;77.1;;;41.6;;
68224;SDS011;57497;43.322;21.932;2024-01-15T11:00:35;129.8;;;67.3;;
68224;SDS011;57497;43.322;21.932;2024-01-15T11:05:33;137.3;;;60.5;;
68224;SDS011;57497;43.322;21.932;2024-01-15T11:10:37;158.6;;;79.1;;
68224;SDS011;57497;43.322;21.932;2024-01-15T11:15:33;101.9;;;51.9;;
68224;SDS011;57497;43.322;21.932;2024-01-15T11:20:33;83.2;;;49.5;;
68224;SDS011;57497;43.322;21.932;2024-01-15T11:25:34;104.8;;;47.8;;
68224;SDS011;57497;43.322;21.932;2024-01-15T11:30:33;97.2;;;52.9;;
68224;SDS011;57497;43.322;21.932;2024-01-15T11:35:49;153.7;;;72.3;;
68224;SDS011;57497;43.322;21.932;2024-01-15T11:40:37;176.1;;;66;;
68224;SDS011;57497;43.322;21.932;2024-01-15T11:45:33;148.8;;;66.4;;
68224;SDS011;57497;43.322;21.932;2024-01-15T11:50:33;176.8;;;82.2;;
68224;SDS011;57497;43.322;21.932;2024-01-15T11:55:34;184.6;;;84.6;;
68224;SDS011;57497;43.322;21.932;2024-01-15T12:00:35;145.5;;;77.7;;
68224;SDS011;57497;43.322;21.932;2024-01-15T12:05:33;186.3;;;81.1;;
68224;SDS011;57497;43.322;21.932;2024-01-15T12:10:34;252.9;;;130.9;;
68224;SDS011;57497;43.322;21.932;2024-01-15T12:15:33;240.8;;;119.3;;
68224;SDS011;57497;43.322;21.932;2024-01-15T12:20:33;240;;;113.5;;
68224;SDS011;57497;43.322;21.932;2024-01-15T12:25:33;189.5;;;84.2;;
68224;SDS011;57497;43.322;21.932;2024-01-15T12:30:33;179.7;;;79.9;;
68224;SDS011;57497;43.322;21.932;2024-01-15T12:35:33;154.3;;;70.8;;
68224;SDS011;57497;43.322;21.932;2024-01-15T12:40:34;188.8;;;94;;
68224;SDS011;57497;43.322;21.932;2024-01-15T12:45:33;166.6;;;83.2;;
68224;SDS011;57497;43.322;21.932;2024-01-15T12:50:33;215.1;;;97.3;;
68224;SDS011;57497;43.322;21.932;2024-01-15T12:55:33;179;;;86.3;;
68224;SDS011;57497;43.322;21.932;2024-01-15T13:00:35;126.7;;;53.4;;
68224;SDS011;57497;43.322;21.932;2024-01-15T13:05:34;43.4;;;27.7;;
68224;SDS011;57497;43.322;21.932;2024-01-15T13:10:33;94.9;;;52.5;;
68224;SDS011;57497;43.322;21.932;2024-01-15T13:15:33;237;;;116.3;;
68224;SDS011;57497;43.322;21.932;2024-01-15T13:20:33;262.3;;;119.8;;
68224;SDS011;57497;43.322;21.932;2024-01-15T13:25:34;249.9;;;121.4;;
68224;SDS011;57497;43.322;21.932;2024-01-15T13:30:34;173.4;;;85.2;;
68224;SDS011;57497;43.322;21.932;2024-01-15T13:35:33;130;;;64.8;;
68224;SDS011;57497;43.322;21.932;2024-01-15T13:40:33;168.3;;;74.2;;
68224;SDS011;57497;43.322;21.932;2024-01-15T13:45:33;218.9;;;120.4;;
68224;SDS011;57497;43.322;21.932;2024-01-15T13:50:33;204.7;;;110;;
68224;SDS011;57497;43.322;21.932;2024-01-15T13:55:34;187.6;;;91.4;;
68224;SDS011;57497;43.322;21.932;2024-01-15T14:00:35;129.9;;;61.3;;
68224;SDS011;57497;43.322;21.932;2024-01-15T14:05:33;126.8;;;61.4;;
68224;SDS011;57497;43.322;21.932;2024-01-15T14:10:33;124.1;;;55.6;;
68224;SDS011;57497;43.322;21.932;2024-01-15T14:15:33;122.8;;;54.4;;
68224;SDS011;57497;43.322;21.932;2024-01-15T14:20:33;172.7;;;81.1;;
68224;SDS011;57497;43.322;21.932;2024-01-15T14:25:33;190.6;;;88.3;;
68224;SDS011;57497;43.322;21.932;2024-01-15T14:30:34;179.4;;;83.1;;
68224;SDS011;57497;43.322;21.932;2024-01-15T14:35:33;175.8;;;76.7;;
68224;SDS011;57497;43.322;21.932;2024-01-15T14:40:34;142.1;;;69.7;;
68224;SDS011;57497;43.322;21.932;2024-01-15T14:45:33;144;;;67.9;;
68224;SDS011;57497;43.322;21.932;2024-01-15T14:50:33;116.4;;;62.3;;
68224;SDS011;57497;43.322;21.932;2024-01-15T14:55:33;93.8;;;47.3;;
68224;SDS011;57497;43.322;21.932;2024-01-15T15:00:35;207;;;93.4;;
68224;SDS011;57497;43.322;21.932;2024-01-15T15:05:33;156.9;;;75.6;;
68224;SDS011;57497;43.322;21.932;2024-01-15T15:10:34;184.8;;;86.2;;
68224;SDS011;57497;43.322;21.932;2024-01-15T15:15:33;166.7;;;80.1;;
68224;SDS011;57497;43.322;21.932;2024-01-15T15:20:33;130.8;;;61.3;;
68224;SDS011;57497;43.322;21.932;2024-01-15T15:25:33;76.5;;;40.8;;
68224;SDS011;57497;43.322;21.932;2024-01-15T15:30:33;72.4;;;35.1;;
68224;SDS011;57497;43.322;21.932;2024-01-15T15:35:33;70.3;;;30;;
68224;SDS011;57497;43.322;21.932;2024-01-15T15:40:33;53.1;;;32.6;;
68224;SDS011;57497;43.322;21.932;2024-01-15T15:45:34;53.1;;;29.5;;
68224;SDS011;57497;43.322;21.932;2024-01-15T15:50:33;62.5;;;37.5;;
68224;SDS011;57497;43.322;21.932;2024-01-15T15:55:33;52.8;;;33;;
68224;SDS011;57497;43.322;21.932;2024-01-15T16:00:35;47.4;;;30;;
68224;SDS011;57497;43.322;21.932;2024-01-15T16:05:33;53;;;31.6;;
68224;SDS011;57497;43.322;21.932;2024-01-15T16:10:33;62.4;;;35.5;;
68224;SDS011;57497;43.322;21.932;2024-01-15T16:15:33;54.7;;;36.2;;
68224;SDS011;57497;43.322;21.932;2024-01-15T16:20:33;58.8;;;37.5;;
68224;SDS011;57497;43.322;21.932;2024-01-15T16:25:34;61.9;;;33.6;;
68224;SDS011;57497;43.322;21.932;2024-01-15T16:30:33;73.5;;;43.1;;
68224;SDS011;57497;43.322;21.932;2024-01-15T16:35:33;118.1;;;52.1;;
68224;SDS011;57497;43.322;21.932;2024-01-15T16:40:33;125.6;;;60.3;;
68224;SDS011;57497;43.322;21.932;2024-01-15T16:45:34;101.8;;;55.5;;
68224;SDS011;57497;43.322;21.932;2024-01-15T16:50:34;128.2;;;64.2;;
68224;SDS011;57497;43.322;21.932;2024-01-15T16:55:33;121.1;;;64.7;;
68224;SDS011;57497;43.322;21.932;2024-01-15T17:00:35;126.8;;;64.2;;
68224;SDS011;57497;43.322;21.932;2024-01-15T17:05:34;137.5;;;73.1;;
68224;SDS011;57497;43.322;21.932;2024-01-15T17:10:34;192.8;;;104.4;;
68224;SDS011;57497;43.322;21.932;2024-01-15T17:15:33;236.2;;;113.4;;
68224;SDS011;57497;43.322;21.932;2024-01-15T17:20:33;233.5;;;115.4;;
68224;SDS011;57497;43.322;21.932;2024-01-15T17:25:33;211.8;;;109.2;;
68224;SDS011;57497;43.322;21.932;2024-01-15T17:30:33;203;;;106.7;;
68224;SDS011;57497;43.322;21.932;2024-01-15T17:35:33;335.6;;;174;;
68224;SDS011;57497;43.322;21.932;2024-01-15T17:40:33;266.7;;;137.5;;
68224;SDS011;57497;43.322;21.932;2024-01-15T17:45:33;269.7;;;136.7;;
68224;SDS011;57497;43.322;21.932;2024-01-15T17:50:33;264.4;;;140.7;;
68224;SDS011;57497;43.322;21.932;2024-01-15T17:55:33;229.9;;;114;;
68224;SDS011;57497;43.322;21.932;2024-01-15T18:00:35;202.4;;;114.6;;
68224;SDS011;57497;43.322;21.932;2024-01-15T18:05:33;228.5;;;118.3;;
68224;SDS011;57497;43.322;21.932;2024-01-15T18:10:33;244.6;;;126.8;;
68224;SDS011;57497;43.322;21.932;2024-01-15T18:15:33;249;;;123.1;;
68224;SDS011;57497;43.322;21.932;2024-01-15T18:20:33;214.3;;;112.6;;
68224;SDS011;57497;43.322;21.932;2024-01-15T18:25:33;256;;;134.8;;
68224;SDS011;57497;43.322;21.932;2024-01-15T18:30:34;262;;;140.9;;
68224;SDS011;57497;43.322;21.932;2024-01-15T18:35:34;311.8;;;165;;
68224;SDS011;57497;43.322;21.932;2024-01-15T18:40:34;307.5;;;161.4;;
68224;SDS011;57497;43.322;21.932;2024-01-15T18:45:35;300.8;;;149;;
68224;SDS011;57497;43.322;21.932;2024-01-15T18:50:33;283.4;;;145.9;;
68224;SDS011;57497;43.322;21.932;2024-01-15T18:55:33;272.3;;;149.8;;
68224;SDS011;57497;43.322;21.932;2024-01-15T19:00:35;268.2;;;141.8;;
68224;SDS011;57497;43.322;21.932;2024-01-15T19:05:33;256.7;;;128.1;;
68224;SDS011;57497;43.322;21.932;2024-01-15T19:10:33;244.4;;;119.1;;
68224;SDS011;57497;43.322;21.932;2024-01-15T19:15:33;323.8;;;166.5;;
68224;SDS011;57497;43.322;21.932;2024-01-15T19:20:33;334.6;;;171.2;;
68224;SDS011;57497;43.322;21.932;2024-01-15T19:25:33;275.9;;;141.7;;
68224;SDS011;57497;43.322;21.932;2024-01-15T19:30:33;264.3;;;134.3;;
68224;SDS011;57497;43.322;21.932;2024-01-15T19:35:33;394.3;;;207.4;;
68224;SDS011;57497;43.322;21.932;2024-01-15T19:40:33;431.6;;;259.7;;
68224;SDS011;57497;43.322;21.932;2024-01-15T19:45:33;482.9;;;278.3;;
68224;SDS011;57497;43.322;21.932;2024-01-15T19:50:33;355.1;;;203.4;;
68224;SDS011;57497;43.322;21.932;2024-01-15T19:55:33;396.8;;;207.4;;
68224;SDS011;57497;43.322;21.932;2024-01-15T20:00:35;366.5;;;200.6;;
68224;SDS011;57497;43.322;21.932;2024-01-15T20:05:33;314.6;;;166.8;;
68224;SDS011;57497;43.322;21.932;2024-01-15T20:10:33;408.8;;;220.4;;
68224;SDS011;57497;43.322;21.932;2024-01-15T20:15:33;254.8;;;134;;
68224;SDS011;57497;43.322;21.932;2024-01-15T20:20:33;398.6;;;219.6;;
68224;SDS011;57497;43.322;21.932;2024-01-15T20:25:33;408.9;;;229;;
68224;SDS011;57497;43.322;21.932;2024-01-15T20:30:34;474.5;;;269.5;;
68224;SDS011;57497;43.322;21.932;2024-01-15T20:35:33;300.4;;;152.3;;
68224;SDS011;57497;43.322;21.932;2024-01-15T20:40:33;374.7;;;182.8;;
68224;SDS011;57497;43.322;21.932;2024-01-15T20:45:33;399.2;;;227.7;;
68224;SDS011;57497;43.322;21.932;2024-01-15T20:50:33;411.4;;;236.8;;
68224;SDS011;57497;43.322;21.932;2024-01-15T20:55:33;410;;;229.4;;
68224;SDS011;57497;43.322;21.932;2024-01-15T21:00:37;455.6;;;270.9;;
68224;SDS011;57497;43.322;21.932;2024-01-15T21:05:34;251.9;;;132.6;;
68224;SDS011;57497;43.322;21.932;2024-01-15T21:10:34;462.1;;;264.7;;
68224;SDS011;57497;43.322;21.932;2024-01-15T21:15:33;203.9;;;107.5;;
68224;SDS011;57497;43.322;21.932;2024-01-15T21:20:33;180.1;;;91.6;;
68224;SDS011;57497;43.322;21.932;2024-01-15T21:25:33;170.4;;;73.9;;
68224;SDS011;57497;43.322;21.932;2024-01-15T21:30:33;224.4;;;96.5;;
68224;SDS011;57497;43.322;21.932;2024-01-15T21:35:33;275.2;;;145.9;;
68224;SDS011;57497;43.322;21.932;2024-01-15T21:40:34;214.9;;;101.6;;
68224;SDS011;57497;43.322;21.932;2024-01-15T21:45:33;232.4;;;103.7;;
68224;SDS011;57497;43.322;21.932;2024-01-15T21:50:33;180.2;;;81.8;;
68224;SDS011;57497;43.322;21.932;2024-01-15T21:55:33;224.1;;;105.7;;
68224;SDS011;57497;43.322;21.932;2024-01-15T22:00:35;254.7;;;108;;
68224;SDS011;57497;43.322;21.932;2024-01-15T22:05:33;140.4;;;65.5;;
68224;SDS011;57497;43.322;21.932;2024-01-15T22:10:33;146.1;;;58.5;;
68224;SDS011;57497;43.322;21.932;2024-01-15T22:15:33;111.7;;;54.9;;
68224;SDS011;57497;43.322;21.932;2024-01-15T22:20:33;157.1;;;72.5;;
68224;SDS011;57497;43.322;21.932;2024-01-15T22:25:33;219.7;;;112.9;;
68224;SDS011;57497;43.322;21.932;2024-01-15T22:30:34;336.4;;;166;;
68224;SDS011;57497;43.322;21.932;2024-01-15T22:35:34;388.8;;;199.5;;
68224;SDS011;57497;43.322;21.932;2024-01-15T22:40:33;349;;;183.6;;
68224;SDS011;57497;43.322;21.932;2024-01-15T22:45:33;393;;;215.9;;
68224;SDS011;57497;43.322;21.932;2024-01-15T22:50:33;320.1;;;177.3;;
68224;SDS011;57497;43.322;21.932;2024-01-15T22:55:33;276.8;;;143.8;;
68224;SDS011;57497;43.322;21.932;2024-01-15T23:00:35;253.4;;;134;;
68224;SDS011;57497;43.322;21.932;2024-01-15T23:05:33;217.4;;;102.8;;
68224;SDS011;57497;43.322;21.932;2024-01-15T23:10:33;129.8;;;61;;
68224;SDS011;57497;43.322;21.932;2024-01-15T23:15:34;136.1;;;63.4;;
68224;SDS011;57497;43.322;21.932;2024-01-15T23:20:33;147.6;;;67.2;;
68224;SDS011;57497;43.322;21.932;2024-01-15T23:25:33;111.5;;;50.3;;
68224;SDS011;57497;43.322;21.932;2024-01-15T23:30:33;84.9;;;42.1;;
68224;SDS011;57497;43.322;21.932;2024-01-15T23:35:33;71.9;;;30.5;;
68224;SDS011;57497;43.322;21.932;2024-01-15T23:40:33;40.9;;;22.9;;
68224;SDS011;57497;43.322;21.932;2024-01-15T23:45:33;34;;;16.6;;
68224;SDS011;57497;43.322;21.932;2024-01-15T23:50:33;31.8;;;17.2;;
68224;SDS011;57497;43.322;21.932;2024-01-15T23:55:33;17.3;;;10.9;;
